Time;durP1;ratioP1;P1;durP2;ratioP2;P2;SDS_P1;SDS_P2;PMS_P1;PMS_P2;Temp;Humidity;BMP_temperature;BMP_pressure;BME280_temperature;BME280_humidity;BME280_pressure;Samples;Min_cycle;Max_cycle;Signal;HPM_P1;HPM_P2
2021/07/17 00:00:07;;;;;;;22.25;17.40;;;;;;;;;;4938006;29;20138;-83
2021/07/17 00:02:53;;;;;;;23.75;17.67;;;;;;;;;;4937974;29;20067;-83
2021/07/17 00:05:38;;;;;;;22.33;18.15;;;;;;;;;;4942102;28;20042;-83
2021/07/17 00:08:23;;;;;;;21.95;16.80;;;;;;;;;;4957126;28;20458;-85
2021/07/17 00:11:08;;;;;;;22.70;17.77;;;;;;;;;;4956870;28;20030;-84
2021/07/17 00:13:53;;;;;;;30.58;20.33;;;;;;;;;;4920161;29;20024;-84
2021/07/17 00:16:39;;;;;;;22.13;18.90;;;;;;;;;;4955985;28;20050;-84
2021/07/17 00:19:24;;;;;;;23.23;18.52;;;;;;;;;;4956393;28;20472;-83
2021/07/17 00:22:09;;;;;;;23.52;18.70;;;;;;;;;;4956866;28;20359;-83
2021/07/17 00:24:54;;;;;;;23.48;19.05;;;;;;;;;;4956861;28;20065;-84
2021/07/17 00:27:40;;;;;;;23.90;18.70;;;;;;;;;;4956266;28;20029;-84
2021/07/17 00:30:25;;;;;;;26.05;19.15;;;;;;;;;;4956498;28;20027;-83
2021/07/17 00:33:11;;;;;;;23.95;18.70;;;;;;;;;;4956707;28;20113;-83
2021/07/17 00:35:56;;;;;;;25.92;18.83;;;;;;;;;;4957155;28;20027;-84
2021/07/17 00:38:41;;;;;;;25.52;20.13;;;;;;;;;;4942935;28;20022;-84
2021/07/17 00:41:26;;;;;;;27.02;19.27;;;;;;;;;;4955079;28;20019;-83
2021/07/17 00:44:12;;;;;;;24.55;18.08;;;;;;;;;;4956519;28;20027;-84
2021/07/17 00:46:58;;;;;;;25.20;18.60;;;;;;;;;;4956570;28;20030;-84
2021/07/17 00:49:44;;;;;;;25.98;18.50;;;;;;;;;;4956748;28;20050;-84
2021/07/17 00:52:29;;;;;;;23.67;19.42;;;;;;;;;;4956488;28;20113;-84
2021/07/17 00:55:15;;;;;;;23.25;17.67;;;;;;;;;;4956595;28;20653;-83
2021/07/17 00:58:00;;;;;;;26.20;19.05;;;;;;;;;;4955898;28;20385;-84
2021/07/17 01:00:46;;;;;;;21.42;17.92;;;;;;;;;;4954675;28;20023;-83
2021/07/17 01:03:31;;;;;;;21.48;16.50;;;;;;;;;;4953496;28;20085;-84
2021/07/17 01:06:16;;;;;;;23.60;18.88;;;;;;;;;;4959618;28;20042;-84
2021/07/17 01:09:01;;;;;;;22.95;18.25;;;;;;;;;;4969487;28;20031;-84
2021/07/17 01:11:47;;;;;;;24.88;18.35;;;;;;;;;;4968886;28;20035;-82
2021/07/17 01:14:32;;;;;;;22.05;17.20;;;;;;;;;;4967164;28;20034;-83
2021/07/17 01:17:17;;;;;;;24.25;17.90;;;;;;;;;;4969262;28;20122;-83
2021/07/17 01:20:07;;;;;;;24.67;17.75;;;;;;;;;;4967392;28;20037;-84
2021/07/17 01:22:52;;;;;;;24.70;17.90;;;;;;;;;;4968820;28;20473;-84
2021/07/17 01:25:37;;;;;;;20.80;18.52;;;;;;;;;;4969046;28;20113;-83
2021/07/17 01:28:23;;;;;;;28.45;19.48;;;;;;;;;;4968686;28;20381;-83
2021/07/17 01:31:08;;;;;;;26.67;20.40;;;;;;;;;;4968106;28;20483;-83
2021/07/17 01:33:53;;;;;;;24.25;20.45;;;;;;;;;;4969202;28;20035;-83
2021/07/17 01:36:40;;;;;;;23.38;18.58;;;;;;;;;;4968740;28;20018;-83
2021/07/17 01:39:25;;;;;;;25.73;18.80;;;;;;;;;;4968780;28;20557;-84
2021/07/17 01:42:10;;;;;;;24.20;18.08;;;;;;;;;;4968695;28;20481;-83
2021/07/17 01:44:56;;;;;;;23.73;17.55;;;;;;;;;;4955150;28;20498;-83
2021/07/17 01:47:41;;;;;;;26.08;19.42;;;;;;;;;;4968756;28;20019;-83
2021/07/17 01:50:28;;;;;;;21.48;17.73;;;;;;;;;;4966884;28;20029;-83
2021/07/17 01:53:13;;;;;;;25.02;19.65;;;;;;;;;;4968669;28;20019;-83
2021/07/17 01:55:59;;;;;;;24.83;20.38;;;;;;;;;;4982228;28;20030;-85
2021/07/17 01:58:44;;;;;;;25.33;18.23;;;;;;;;;;4967936;28;20470;-83
2021/07/17 02:01:29;;;;;;;24.42;18.52;;;;;;;;;;4967068;28;20030;-84
2021/07/17 02:04:14;;;;;;;26.98;20.73;;;;;;;;;;4966819;28;20023;-85
2021/07/17 02:07:00;;;;;;;23.38;18.83;;;;;;;;;;4968013;28;20185;-83
2021/07/17 02:09:45;;;;;;;24.98;18.90;;;;;;;;;;4966905;28;20031;-83
2021/07/17 02:12:30;;;;;;;28.13;19.45;;;;;;;;;;4962508;28;20040;-83
2021/07/17 02:15:15;;;;;;;26.25;19.20;;;;;;;;;;4956211;28;20627;-83
2021/07/17 02:18:01;;;;;;;26.13;18.23;;;;;;;;;;4966553;28;20027;-83
2021/07/17 02:20:46;;;;;;;26.95;19.58;;;;;;;;;;4967964;28;20022;-84
2021/07/17 02:23:31;;;;;;;28.02;19.13;;;;;;;;;;4968148;28;20023;-84
2021/07/17 02:26:17;;;;;;;25.60;18.85;;;;;;;;;;4968294;28;20019;-85
2021/07/17 02:29:02;;;;;;;25.05;17.40;;;;;;;;;;4968239;28;20031;-83
2021/07/17 02:31:47;;;;;;;22.75;17.67;;;;;;;;;;4967655;28;20126;-84
2021/07/17 02:34:33;;;;;;;25.80;19.52;;;;;;;;;;4961609;28;20023;-83
2021/07/17 02:37:18;;;;;;;24.65;19.20;;;;;;;;;;4948826;29;20027;-85
2021/07/17 02:40:04;;;;;;;23.65;18.70;;;;;;;;;;4947442;29;20398;-84
2021/07/17 02:42:49;;;;;;;25.98;19.05;;;;;;;;;;4950177;28;20588;-84
2021/07/17 02:45:35;;;;;;;24.90;19.88;;;;;;;;;;4952570;29;20039;-84
2021/07/17 02:48:20;;;;;;;26.85;19.30;;;;;;;;;;4952797;29;20027;-84
2021/07/17 02:51:05;;;;;;;26.15;18.38;;;;;;;;;;4952230;29;20023;-84
2021/07/17 02:53:51;;;;;;;27.40;20.00;;;;;;;;;;4952440;29;20051;-84
2021/07/17 02:56:37;;;;;;;28.77;21.48;;;;;;;;;;4952524;29;20019;-84
2021/07/17 02:59:22;;;;;;;26.05;19.88;;;;;;;;;;4950159;29;20027;-84
2021/07/17 03:02:07;;;;;;;29.45;19.17;;;;;;;;;;4952329;29;20031;-85
2021/07/17 03:04:53;;;;;;;28.45;19.65;;;;;;;;;;4952142;29;20027;-84
2021/07/17 03:07:38;;;;;;;25.13;19.73;;;;;;;;;;4951897;29;20047;-83
2021/07/17 03:10:23;;;;;;;26.17;20.88;;;;;;;;;;4950699;29;20050;-85
2021/07/17 03:13:09;;;;;;;25.75;19.48;;;;;;;;;;4965076;28;20058;-83
2021/07/17 03:15:54;;;;;;;25.20;20.67;;;;;;;;;;4963166;28;20069;-83
2021/07/17 03:18:39;;;;;;;29.65;20.73;;;;;;;;;;4951735;29;20056;-83
2021/07/17 03:21:24;;;;;;;27.20;20.98;;;;;;;;;;4951574;29;20011;-83
2021/07/17 03:24:09;;;;;;;26.48;20.63;;;;;;;;;;4951808;29;20113;-83
2021/07/17 03:26:55;;;;;;;25.73;20.33;;;;;;;;;;4951741;29;20846;-84
2021/07/17 03:29:40;;;;;;;25.50;21.00;;;;;;;;;;4951505;29;20023;-84
2021/07/17 03:32:26;;;;;;;27.92;20.35;;;;;;;;;;4951734;29;20082;-83
2021/07/17 03:35:11;;;;;;;26.80;20.85;;;;;;;;;;4951725;29;20347;-83
2021/07/17 03:37:57;;;;;;;25.77;20.63;;;;;;;;;;4951259;29;20534;-83
2021/07/17 03:40:42;;;;;;;24.70;19.52;;;;;;;;;;4951740;29;20031;-83
2021/07/17 03:43:27;;;;;;;30.17;18.85;;;;;;;;;;4951418;29;20019;-82
2021/07/17 03:46:13;;;;;;;26.40;19.00;;;;;;;;;;4951176;29;20023;-83
2021/07/17 03:49:03;;;;;;;27.88;20.38;;;;;;;;;;4951444;29;20090;-83
2021/07/17 03:51:51;;;;;;;26.95;19.10;;;;;;;;;;4951328;29;20398;-82
2021/07/17 03:54:37;;;;;;;25.47;19.33;;;;;;;;;;4950279;28;20113;-83
2021/07/17 03:57:22;;;;;;;26.75;19.70;;;;;;;;;;4951390;29;20031;-83
2021/07/17 04:00:08;;;;;;;22.00;18.40;;;;;;;;;;4950852;29;20035;-82
2021/07/17 04:02:53;;;;;;;26.02;19.08;;;;;;;;;;4949392;29;20110;-83
2021/07/17 04:05:39;;;;;;;26.15;19.65;;;;;;;;;;4950622;29;20043;-82
2021/07/17 04:08:24;;;;;;;25.20;19.77;;;;;;;;;;4950893;29;20035;-82
2021/07/17 04:11:09;;;;;;;27.88;21.55;;;;;;;;;;4937740;29;20074;-82
2021/07/17 04:13:55;;;;;;;25.02;19.52;;;;;;;;;;4950439;29;20019;-82
2021/07/17 04:16:40;;;;;;;25.10;18.45;;;;;;;;;;4963476;28;20023;-83
2021/07/17 04:19:25;;;;;;;26.08;20.67;;;;;;;;;;4950700;29;20027;-83
2021/07/17 04:22:10;;;;;;;27.58;18.55;;;;;;;;;;4950510;29;20550;-82
2021/07/17 04:24:55;;;;;;;28.63;20.35;;;;;;;;;;4950992;29;20042;-83
2021/07/17 04:27:41;;;;;;;27.20;18.58;;;;;;;;;;4950638;29;20110;-83
2021/07/17 04:30:26;;;;;;;25.75;18.55;;;;;;;;;;4948990;29;20027;-83
2021/07/17 04:33:11;;;;;;;23.75;18.60;;;;;;;;;;4950709;29;20537;-83
2021/07/17 04:35:56;;;;;;;25.10;18.52;;;;;;;;;;4950057;29;20122;-82
2021/07/17 04:38:41;;;;;;;23.85;18.88;;;;;;;;;;4946798;29;20082;-83
2021/07/17 04:41:27;;;;;;;24.35;18.08;;;;;;;;;;4950576;29;20458;-84
2021/07/17 04:44:12;;;;;;;29.27;19.98;;;;;;;;;;4950141;29;20035;-82
2021/07/17 04:46:57;;;;;;;27.60;20.20;;;;;;;;;;4950343;29;20061;-84
2021/07/17 04:49:42;;;;;;;27.55;19.85;;;;;;;;;;4948725;29;20027;-83
2021/07/17 04:52:28;;;;;;;27.23;20.25;;;;;;;;;;4949632;29;20445;-84
2021/07/17 04:55:13;;;;;;;23.02;19.42;;;;;;;;;;4950161;29;20023;-82
2021/07/17 04:57:58;;;;;;;25.23;20.30;;;;;;;;;;4949862;29;20035;-82
2021/07/17 05:00:44;;;;;;;25.38;20.27;;;;;;;;;;4949627;29;20035;-85
2021/07/17 05:03:29;;;;;;;25.77;20.42;;;;;;;;;;4950334;29;20023;-84
2021/07/17 05:06:14;;;;;;;29.80;19.60;;;;;;;;;;4948841;28;20125;-83
2021/07/17 05:08:59;;;;;;;26.73;20.05;;;;;;;;;;4948235;29;20034;-83
2021/07/17 05:11:44;;;;;;;28.10;20.35;;;;;;;;;;4952141;28;20027;-85
2021/07/17 05:14:29;;;;;;;27.83;21.30;;;;;;;;;;4968914;28;20393;-83
2021/07/17 05:17:15;;;;;;;25.35;19.30;;;;;;;;;;4969087;28;20069;-83
2021/07/17 05:20:00;;;;;;;24.50;19.02;;;;;;;;;;4969141;28;20042;-83
2021/07/17 05:22:45;;;;;;;25.08;19.75;;;;;;;;;;4969003;28;20030;-83
2021/07/17 05:25:31;;;;;;;23.92;18.52;;;;;;;;;;4968611;28;20449;-83
2021/07/17 05:28:17;;;;;;;24.73;18.42;;;;;;;;;;4969130;28;20105;-83
2021/07/17 05:31:02;;;;;;;28.27;19.65;;;;;;;;;;4968552;28;20023;-83
2021/07/17 05:33:47;;;;;;;27.08;17.52;;;;;;;;;;4955566;28;20478;-83
2021/07/17 05:36:32;;;;;;;28.05;18.90;;;;;;;;;;4968837;28;20130;-83
2021/07/17 05:39:17;;;;;;;25.42;18.77;;;;;;;;;;4966594;28;20037;-85
2021/07/17 05:42:03;;;;;;;23.33;18.20;;;;;;;;;;4968985;28;20018;-85
2021/07/17 05:44:48;;;;;;;23.30;16.58;;;;;;;;;;4965272;28;20527;-84
2021/07/17 05:47:33;;;;;;;18.85;16.35;;;;;;;;;;4968558;28;20410;-83
2021/07/17 05:50:19;;;;;;;25.50;17.95;;;;;;;;;;4955549;28;20129;-84
2021/07/17 05:53:07;;;;;;;24.58;17.33;;;;;;;;;;4968542;28;20027;-83
2021/07/17 05:55:53;;;;;;;24.50;16.57;;;;;;;;;;4968903;28;20029;-84
2021/07/17 05:58:38;;;;;;;24.70;16.65;;;;;;;;;;4968642;28;20031;-84
2021/07/17 06:01:23;;;;;;;24.20;16.70;;;;;;;;;;4955005;28;20114;-83
2021/07/17 06:04:09;;;;;;;19.65;15.52;;;;;;;;;;4968721;28;20034;-83
2021/07/17 06:06:54;;;;;;;22.02;15.75;;;;;;;;;;4968224;28;20043;-83
2021/07/17 06:09:41;;;;;;;20.98;15.27;;;;;;;;;;4966756;28;20058;-83
2021/07/17 06:12:26;;;;;;;20.80;15.73;;;;;;;;;;4968741;28;20027;-84
2021/07/17 06:15:12;;;;;;;22.20;15.55;;;;;;;;;;4960740;28;20050;-84
2021/07/17 06:17:57;;;;;;;19.92;16.95;;;;;;;;;;4951005;28;20043;-84
2021/07/17 06:20:42;;;;;;;23.20;16.58;;;;;;;;;;4953065;29;20114;-83
2021/07/17 06:23:27;;;;;;;23.55;16.38;;;;;;;;;;4952571;29;20115;-84
2021/07/17 06:26:12;;;;;;;21.25;16.20;;;;;;;;;;4952869;29;20086;-84
2021/07/17 06:28:57;;;;;;;21.27;16.13;;;;;;;;;;4953101;29;20106;-84
2021/07/17 06:31:43;;;;;;;20.13;16.75;;;;;;;;;;4952917;29;20122;-84
2021/07/17 06:34:28;;;;;;;23.05;16.38;;;;;;;;;;4952996;29;20023;-85
2021/07/17 06:37:13;;;;;;;25.30;18.17;;;;;;;;;;4953052;29;20035;-84
2021/07/17 06:39:58;;;;;;;20.17;16.27;;;;;;;;;;4952507;29;20102;-84
2021/07/17 06:42:48;;;;;;;20.92;17.38;;;;;;;;;;4953029;29;20022;-84
2021/07/17 06:45:34;;;;;;;30.60;17.63;;;;;;;;;;4952544;29;20023;-84
2021/07/17 06:48:19;;;;;;;20.70;16.20;;;;;;;;;;4952638;29;20089;-84
2021/07/17 06:51:04;;;;;;;23.40;17.35;;;;;;;;;;4952778;29;20027;-84
2021/07/17 06:53:49;;;;;;;24.05;16.00;;;;;;;;;;4952236;29;20153;-84
2021/07/17 06:56:34;;;;;;;20.58;15.77;;;;;;;;;;4952432;29;20434;-85
2021/07/17 06:59:20;;;;;;;24.48;16.90;;;;;;;;;;4950714;29;20030;-84
2021/07/17 07:02:05;;;;;;;25.98;17.08;;;;;;;;;;4952223;29;20030;-85
2021/07/17 07:04:51;;;;;;;26.02;16.63;;;;;;;;;;4952690;29;20042;-85
2021/07/17 07:07:36;;;;;;;23.38;17.65;;;;;;;;;;4952198;29;20089;-83
2021/07/17 07:10:21;;;;;;;23.05;16.25;;;;;;;;;;4950162;29;20470;-83
2021/07/17 07:13:18;;;;;;;22.10;16.85;;;;;;;;;;4965101;28;20081;-85
2021/07/17 07:16:03;;;;;;;26.90;16.40;;;;;;;;;;4952096;29;20023;-84
2021/07/17 07:18:48;;;;;;;25.75;16.73;;;;;;;;;;4948609;29;20046;-84
2021/07/17 07:21:34;;;;;;;29.90;18.42;;;;;;;;;;4951777;29;20027;-85
2021/07/17 07:24:19;;;;;;;27.05;18.27;;;;;;;;;;4952779;29;20069;-86
2021/07/17 07:27:04;;;;;;;25.10;18.60;;;;;;;;;;4951888;29;20029;-85
2021/07/17 07:29:49;;;;;;;23.00;15.27;;;;;;;;;;4950514;28;20031;-84
2021/07/17 07:32:34;;;;;;;24.92;16.85;;;;;;;;;;4952043;29;20484;-84
2021/07/17 07:35:20;;;;;;;23.52;15.43;;;;;;;;;;4951768;29;20140;-83
2021/07/17 07:38:06;;;;;;;23.02;16.77;;;;;;;;;;4951406;29;20130;-84
2021/07/17 07:40:51;;;;;;;21.80;15.48;;;;;;;;;;4950003;29;20023;-83
2021/07/17 07:43:36;;;;;;;22.30;16.02;;;;;;;;;;4950850;29;20059;-83
2021/07/17 07:46:21;;;;;;;22.85;15.13;;;;;;;;;;4948157;29;20024;-83
2021/07/17 07:49:07;;;;;;;22.50;15.50;;;;;;;;;;4951131;29;20023;-83
2021/07/17 07:51:53;;;;;;;24.33;16.35;;;;;;;;;;4949577;29;20031;-83
2021/07/17 07:54:38;;;;;;;22.95;16.90;;;;;;;;;;4951324;29;20073;-84
2021/07/17 07:57:23;;;;;;;22.27;16.70;;;;;;;;;;4951272;29;20027;-82
2021/07/17 08:00:09;;;;;;;23.17;16.48;;;;;;;;;;4950671;29;20114;-84
2021/07/17 08:02:54;;;;;;;28.13;16.65;;;;;;;;;;4951530;29;20023;-84
2021/07/17 08:05:40;;;;;;;23.90;15.85;;;;;;;;;;4950680;28;20047;-84
2021/07/17 08:08:25;;;;;;;25.02;18.02;;;;;;;;;;4939478;29;20122;-84
2021/07/17 08:11:10;;;;;;;24.38;17.10;;;;;;;;;;4949545;29;20390;-84
2021/07/17 08:13:55;;;;;;;30.92;20.45;;;;;;;;;;4950701;29;20055;-83
2021/07/17 08:16:40;;;;;;;24.77;19.05;;;;;;;;;;4963570;28;20031;-84
2021/07/17 08:19:26;;;;;;;25.00;17.42;;;;;;;;;;4950584;29;20121;-84
2021/07/17 08:22:11;;;;;;;33.20;17.80;;;;;;;;;;4950541;29;20106;-83
2021/07/17 08:24:56;;;;;;;26.45;18.77;;;;;;;;;;4950491;29;20473;-84
2021/07/17 08:27:41;;;;;;;27.75;19.73;;;;;;;;;;4950791;29;20035;-85
2021/07/17 08:30:27;;;;;;;24.85;17.17;;;;;;;;;;4950378;29;20031;-84
2021/07/17 08:33:12;;;;;;;26.13;18.13;;;;;;;;;;4953589;29;20259;-82
2021/07/17 08:35:58;;;;;;;23.02;17.80;;;;;;;;;;4951384;29;20024;-83
2021/07/17 08:38:44;;;;;;;29.90;20.83;;;;;;;;;;4948426;29;20085;-83
2021/07/17 08:41:33;;;;;;;25.45;20.33;;;;;;;;;;4950380;28;20023;-83
2021/07/17 08:44:19;;;;;;;31.08;20.08;;;;;;;;;;4949973;29;20432;-84
2021/07/17 08:47:06;;;;;;;25.70;17.98;;;;;;;;;;4950561;29;20027;-83
2021/07/17 08:49:53;;;;;;;27.95;17.83;;;;;;;;;;4948349;29;20046;-84
2021/07/17 08:52:39;;;;;;;26.52;19.60;;;;;;;;;;4949826;29;20035;-84
2021/07/17 08:55:26;;;;;;;21.77;17.80;;;;;;;;;;4950245;29;20019;-84
2021/07/17 08:58:11;;;;;;;30.48;19.88;;;;;;;;;;4949765;29;20027;-84
2021/07/17 09:00:56;;;;;;;28.00;19.27;;;;;;;;;;4936693;29;20054;-84
2021/07/17 09:03:41;;;;;;;26.02;18.20;;;;;;;;;;4950105;29;20019;-84
2021/07/17 09:06:27;;;;;;;27.52;17.70;;;;;;;;;;4949391;29;20055;-84
2021/07/17 09:09:26;;;;;;;24.83;17.30;;;;;;;;;;4948687;29;20038;-83
2021/07/17 09:12:22;;;;;;;28.77;18.30;;;;;;;;;;4955368;28;20060;-83
2021/07/17 09:15:16;;;;;;;20.45;16.58;;;;;;;;;;4962827;28;20103;-83
2021/07/17 09:18:02;;;;;;;26.35;16.92;;;;;;;;;;4949560;29;20039;-83
2021/07/17 09:20:55;;;;;;;26.77;16.50;;;;;;;;;;4949540;29;20023;-83
2021/07/17 09:23:45;;;;;;;26.25;18.23;;;;;;;;;;4936195;29;20031;-82
2021/07/17 09:26:31;;;;;;;28.08;17.92;;;;;;;;;;4949711;29;20023;-83
2021/07/17 09:29:17;;;;;;;23.75;18.55;;;;;;;;;;4949263;29;20557;-84
2021/07/17 09:32:03;;;;;;;27.67;18.08;;;;;;;;;;4949193;29;20031;-83
2021/07/17 09:34:48;;;;;;;23.70;16.33;;;;;;;;;;4949403;29;20457;-84
2021/07/17 09:37:33;;;;;;;22.10;16.05;;;;;;;;;;4945701;29;20526;-82
2021/07/17 09:40:18;;;;;;;25.27;16.90;;;;;;;;;;4949556;29;20031;-85
2021/07/17 09:43:03;;;;;;;23.52;16.50;;;;;;;;;;4949335;29;20075;-82
2021/07/17 09:45:49;;;;;;;28.23;17.98;;;;;;;;;;4949158;29;20026;-83
2021/07/17 09:48:34;;;;;;;21.27;16.63;;;;;;;;;;4949704;29;20301;-83
2021/07/17 09:51:21;;;;;;;24.20;17.08;;;;;;;;;;4949261;28;20079;-83
2021/07/17 09:54:06;;;;;;;29.27;16.38;;;;;;;;;;4948975;29;20027;-83
2021/07/17 09:56:59;;;;;;;20.80;15.05;;;;;;;;;;4949549;29;20190;-82
2021/07/17 09:59:59;;;;;;;25.45;16.55;;;;;;;;;;4946903;29;20034;-83
2021/07/17 10:02:45;;;;;;;31.40;17.10;;;;;;;;;;4948993;29;20032;-83
2021/07/17 10:05:38;;;;;;;21.02;16.30;;;;;;;;;;4949163;29;20044;-83
2021/07/17 10:08:32;;;;;;;22.35;16.15;;;;;;;;;;4935818;29;20122;-83
2021/07/17 10:11:24;;;;;;;24.38;16.90;;;;;;;;;;4949306;29;20027;-83
2021/07/17 10:14:17;;;;;;;22.73;16.15;;;;;;;;;;4968702;28;20117;-83
2021/07/17 10:17:14;;;;;;;22.20;15.32;;;;;;;;;;4949002;29;20027;-83
2021/07/17 10:20:02;;;;;;;24.20;15.82;;;;;;;;;;4948695;29;20038;-83
2021/07/17 10:22:48;;;;;;;24.98;17.00;;;;;;;;;;4949189;29;20382;-83
2021/07/17 10:25:33;;;;;;;27.70;17.67;;;;;;;;;;4949209;29;20510;-83
2021/07/17 10:28:18;;;;;;;25.15;17.15;;;;;;;;;;4948892;29;20437;-83
2021/07/17 10:31:04;;;;;;;22.08;16.55;;;;;;;;;;4949304;29;20370;-82
2021/07/17 10:33:49;;;;;;;24.08;17.05;;;;;;;;;;4949242;29;20031;-83
2021/07/17 10:36:36;;;;;;;20.60;16.88;;;;;;;;;;4949073;29;20374;-83
2021/07/17 10:39:22;;;;;;;23.70;17.15;;;;;;;;;;4948919;29;20065;-83
2021/07/17 10:42:26;;;;;;;21.02;16.27;;;;;;;;;;4947430;29;20354;-84
2021/07/17 10:45:11;;;;;;;27.50;18.13;;;;;;;;;;4961850;28;20497;-83
2021/07/17 10:47:57;;;;;;;20.30;15.50;;;;;;;;;;4949028;29;20034;-83
2021/07/17 10:50:45;;;;;;;21.05;15.98;;;;;;;;;;4949277;29;20023;-82
2021/07/17 10:53:39;;;;;;;22.00;16.48;;;;;;;;;;4948991;29;20110;-83
2021/07/17 10:56:25;;;;;;;21.42;17.70;;;;;;;;;;4948746;29;20038;-83
2021/07/17 10:59:13;;;;;;;23.10;16.27;;;;;;;;;;4948491;29;20078;-82
2021/07/17 11:01:59;;;;;;;23.85;16.67;;;;;;;;;;4949034;29;20390;-83
2021/07/17 11:04:52;;;;;;;26.25;16.73;;;;;;;;;;4946603;28;20023;-83
2021/07/17 11:07:37;;;;;;;16.52;14.63;;;;;;;;;;4952196;29;20110;-84
2021/07/17 11:10:38;;;;;;;22.73;16.30;;;;;;;;;;4952062;29;20031;-83
2021/07/17 11:13:30;;;;;;;19.88;15.45;;;;;;;;;;4967396;28;20054;-83
2021/07/17 11:16:35;;;;;;;21.65;16.10;;;;;;;;;;4965594;28;20019;-83
2021/07/17 11:19:25;;;;;;;21.52;15.73;;;;;;;;;;4950263;29;20118;-83
2021/07/17 11:22:14;;;;;;;24.10;16.02;;;;;;;;;;4952022;29;20027;-82
2021/07/17 11:25:03;;;;;;;21.10;15.17;;;;;;;;;;4948668;29;20041;-82
2021/07/17 11:27:48;;;;;;;18.85;15.40;;;;;;;;;;4951828;29;20788;-82
2021/07/17 11:30:35;;;;;;;26.10;15.68;;;;;;;;;;4951678;29;20386;-82
2021/07/17 11:33:20;;;;;;;19.85;15.73;;;;;;;;;;4951618;29;20027;-82
2021/07/17 11:36:23;;;;;;;22.42;16.38;;;;;;;;;;4951844;29;20031;-82
2021/07/17 11:39:09;;;;;;;22.92;16.33;;;;;;;;;;4951756;29;20603;-82
2021/07/17 11:41:56;;;;;;;18.00;14.63;;;;;;;;;;4951398;29;20015;-81
2021/07/17 11:44:42;;;;;;;22.95;16.70;;;;;;;;;;4951611;29;20015;-82
2021/07/17 11:47:31;;;;;;;22.92;17.00;;;;;;;;;;4951627;29;20027;-82
2021/07/17 11:50:16;;;;;;;23.83;16.40;;;;;;;;;;4949682;29;20450;-83
2021/07/17 11:53:11;;;;;;;18.63;14.68;;;;;;;;;;4951954;29;20121;-82
2021/07/17 11:55:56;;;;;;;19.45;15.32;;;;;;;;;;4949424;29;20034;-82
2021/07/17 11:58:41;;;;;;;20.85;15.38;;;;;;;;;;4951384;29;20023;-83
2021/07/17 12:01:27;;;;;;;19.25;15.05;;;;;;;;;;4950725;29;20382;-82
2021/07/17 12:04:27;;;;;;;21.42;14.23;;;;;;;;;;4949410;29;20027;-82
2021/07/17 12:07:13;;;;;;;18.88;13.95;;;;;;;;;;4950763;29;20078;-82
2021/07/17 12:10:08;;;;;;;18.50;14.30;;;;;;;;;;4949609;29;20090;-82
2021/07/17 12:12:54;;;;;;;22.05;15.75;;;;;;;;;;4962563;28;20109;-83
2021/07/17 12:15:41;;;;;;;19.40;15.48;;;;;;;;;;4963400;28;20482;-83
2021/07/17 12:18:27;;;;;;;19.77;15.20;;;;;;;;;;4947582;29;20023;-82
2021/07/17 12:21:14;;;;;;;25.38;15.20;;;;;;;;;;4951019;29;20105;-83
2021/07/17 12:24:02;;;;;;;18.23;13.82;;;;;;;;;;4947165;29;20023;-83
2021/07/17 12:26:47;;;;;;;19.35;14.48;;;;;;;;;;4951024;29;20034;-83
2021/07/17 12:29:35;;;;;;;22.17;15.30;;;;;;;;;;4950500;29;20027;-84
2021/07/17 12:32:20;;;;;;;16.27;13.30;;;;;;;;;;4950552;29;20035;-83
2021/07/17 12:35:06;;;;;;;19.90;14.50;;;;;;;;;;4950674;29;20030;-83
2021/07/17 12:37:51;;;;;;;20.52;13.90;;;;;;;;;;4950381;29;20326;-83
2021/07/17 12:40:45;;;;;;;19.38;13.55;;;;;;;;;;4950375;29;20042;-84
2021/07/17 12:43:41;;;;;;;18.80;13.95;;;;;;;;;;4950299;29;20034;-83
2021/07/17 12:46:27;;;;;;;23.00;14.82;;;;;;;;;;4950566;29;20101;-84
2021/07/17 12:49:14;;;;;;;19.55;14.50;;;;;;;;;;4948804;29;20058;-83
2021/07/17 12:51:59;;;;;;;19.67;14.38;;;;;;;;;;4950519;29;20034;-82
2021/07/17 12:54:44;;;;;;;21.02;16.45;;;;;;;;;;4948115;29;20023;-82
2021/07/17 12:57:30;;;;;;;23.00;16.33;;;;;;;;;;4946945;29;20034;-83
2021/07/17 13:00:16;;;;;;;20.50;15.45;;;;;;;;;;4948238;29;20046;-83
2021/07/17 13:03:02;;;;;;;20.98;15.82;;;;;;;;;;4949761;29;20111;-83
2021/07/17 13:05:49;;;;;;;19.60;14.73;;;;;;;;;;4948199;29;20536;-83
2021/07/17 13:08:34;;;;;;;17.35;14.90;;;;;;;;;;4949590;29;20038;-82
2021/07/17 13:11:21;;;;;;;18.65;15.23;;;;;;;;;;4934908;29;20027;-83
2021/07/17 13:14:07;;;;;;;21.20;15.43;;;;;;;;;;4949690;29;20493;-83
2021/07/17 13:16:52;;;;;;;20.92;14.63;;;;;;;;;;4962542;28;20410;-83
2021/07/17 13:19:38;;;;;;;19.23;14.85;;;;;;;;;;4947890;29;20031;-82
2021/07/17 13:22:32;;;;;;;18.95;13.98;;;;;;;;;;4949753;29;20139;-82
2021/07/17 13:25:18;;;;;;;18.80;15.05;;;;;;;;;;4949660;29;20041;-83
2021/07/17 13:28:05;;;;;;;18.65;14.80;;;;;;;;;;4946772;28;20026;-82
2021/07/17 13:30:50;;;;;;;20.80;14.95;;;;;;;;;;4947860;29;20026;-82
2021/07/17 13:33:38;;;;;;;18.45;14.57;;;;;;;;;;4949518;29;20346;-81
2021/07/17 13:36:23;;;;;;;14.93;13.23;;;;;;;;;;4949278;29;20027;-85
2021/07/17 13:39:08;;;;;;;18.00;14.38;;;;;;;;;;4947681;29;20154;-83
2021/07/17 13:42:04;;;;;;;18.75;14.45;;;;;;;;;;4949330;29;20023;-82
2021/07/17 13:44:59;;;;;;;18.38;14.32;;;;;;;;;;4949441;29;20024;-83
2021/07/17 13:47:45;;;;;;;17.70;13.10;;;;;;;;;;4936055;29;20019;-83
2021/07/17 13:50:32;;;;;;;17.33;13.77;;;;;;;;;;4949685;29;20027;-83
2021/07/17 13:53:20;;;;;;;20.23;14.25;;;;;;;;;;4949268;29;20370;-83
2021/07/17 13:56:07;;;;;;;17.45;13.90;;;;;;;;;;4949405;29;20035;-83
2021/07/17 13:59:00;;;;;;;17.85;13.95;;;;;;;;;;4947384;29;20035;-82
2021/07/17 14:01:45;;;;;;;15.40;12.98;;;;;;;;;;4949367;29;20037;-83
2021/07/17 14:04:31;;;;;;;18.80;13.80;;;;;;;;;;4948786;29;20023;-82
2021/07/17 14:07:17;;;;;;;17.17;12.85;;;;;;;;;;4947108;29;20047;-82
2021/07/17 14:10:02;;;;;;;19.15;13.20;;;;;;;;;;4949379;29;20050;-85
2021/07/17 14:12:47;;;;;;;15.80;13.15;;;;;;;;;;4944193;28;20038;-82
2021/07/17 14:15:34;;;;;;;16.13;13.20;;;;;;;;;;4962460;28;20027;-81
2021/07/17 14:18:19;;;;;;;14.88;13.05;;;;;;;;;;4948972;29;20042;-82
2021/07/17 14:21:04;;;;;;;15.50;12.93;;;;;;;;;;4947199;29;20023;-83
2021/07/17 14:23:49;;;;;;;16.42;11.93;;;;;;;;;;4949323;29;20034;-84
2021/07/17 14:26:35;;;;;;;18.23;12.43;;;;;;;;;;4948921;29;20026;-83
2021/07/17 14:29:20;;;;;;;15.55;11.65;;;;;;;;;;4947320;29;20050;-83
2021/07/17 14:32:07;;;;;;;15.35;11.95;;;;;;;;;;4949265;29;20038;-82
2021/07/17 14:34:52;;;;;;;15.55;12.07;;;;;;;;;;4946701;29;20122;-83
2021/07/17 14:37:37;;;;;;;16.48;11.48;;;;;;;;;;4948614;28;20031;-82
2021/07/17 14:40:22;;;;;;;16.50;12.25;;;;;;;;;;4952370;29;20513;-84
2021/07/17 14:43:08;;;;;;;19.58;12.00;;;;;;;;;;4948723;29;20643;-83
2021/07/17 14:45:53;;;;;;;14.85;12.15;;;;;;;;;;4952681;29;20098;-83
2021/07/17 14:48:38;;;;;;;14.77;11.95;;;;;;;;;;4952502;29;20027;-82
2021/07/17 14:51:23;;;;;;;14.75;12.02;;;;;;;;;;4952200;29;20381;-83
2021/07/17 14:54:09;;;;;;;16.13;12.05;;;;;;;;;;4952621;29;20030;-83
2021/07/17 14:56:56;;;;;;;15.13;12.02;;;;;;;;;;4952387;29;20082;-82
2021/07/17 14:59:43;;;;;;;13.88;11.70;;;;;;;;;;4952198;29;20027;-82
2021/07/17 15:02:28;;;;;;;16.67;12.35;;;;;;;;;;4952365;29;20359;-82
2021/07/17 15:05:14;;;;;;;16.65;12.40;;;;;;;;;;4951734;28;20031;-83
2021/07/17 15:07:59;;;;;;;17.85;12.32;;;;;;;;;;4952123;29;20377;-82
2021/07/17 15:10:45;;;;;;;16.73;12.77;;;;;;;;;;4952125;29;20590;-83
2021/07/17 15:13:31;;;;;;;18.77;12.68;;;;;;;;;;4968264;28;20319;-82
2021/07/17 15:16:16;;;;;;;17.73;13.55;;;;;;;;;;4965434;28;20103;-82
2021/07/17 15:19:01;;;;;;;15.63;12.52;;;;;;;;;;4951798;29;20034;-82
2021/07/17 15:21:47;;;;;;;17.92;12.55;;;;;;;;;;4952065;29;20027;-82
2021/07/17 15:24:32;;;;;;;15.52;11.80;;;;;;;;;;4952082;29;20031;-82
2021/07/17 15:27:17;;;;;;;18.70;13.10;;;;;;;;;;4951335;29;20498;-83
2021/07/17 15:30:04;;;;;;;16.75;12.93;;;;;;;;;;4952047;29;20149;-83
2021/07/17 15:32:49;;;;;;;16.60;12.00;;;;;;;;;;4951640;29;20446;-82
2021/07/17 15:35:36;;;;;;;16.42;12.02;;;;;;;;;;4951691;29;20058;-83
2021/07/17 15:38:22;;;;;;;16.05;12.30;;;;;;;;;;4951711;29;20145;-83
2021/07/17 15:41:09;;;;;;;15.73;11.80;;;;;;;;;;4949949;29;20054;-83
2021/07/17 15:43:56;;;;;;;16.50;12.43;;;;;;;;;;4951353;29;20055;-84
2021/07/17 15:46:41;;;;;;;17.90;11.60;;;;;;;;;;4951736;29;20050;-84
2021/07/17 15:49:27;;;;;;;16.30;12.30;;;;;;;;;;4950955;28;20078;-83
2021/07/17 15:52:12;;;;;;;16.45;11.52;;;;;;;;;;4951670;29;20058;-82
2021/07/17 15:54:57;;;;;;;14.85;10.93;;;;;;;;;;4951179;29;20030;-82
2021/07/17 15:57:42;;;;;;;15.80;11.68;;;;;;;;;;4951158;29;20085;-82
2021/07/17 16:00:28;;;;;;;13.70;11.40;;;;;;;;;;4949837;29;20026;-83
2021/07/17 16:03:13;;;;;;;16.77;11.57;;;;;;;;;;4950986;29;20036;-82
2021/07/17 16:05:58;;;;;;;15.77;11.65;;;;;;;;;;4950832;29;20054;-82